Hooks, Texas
Current Conditions -  °F | °C
As of 11:18 AM on Friday 19 Dec 2014 (Local Time) from KTXK Reporting Station
Haze Haze  
Wind Chill: 41°   Ceiling: 500
Heat Index: 44°   Visibility: 6mi
Dew Point: 43°   Wind: 6mph
Humidity: 96%   Direction: 90°E
Pressure: 30.21"   Gusts: NA
Location:  33.47°N, 94.29°W
Report Text: KTXK 191718Z 09005KT 6SM BR OVC005 07/06 A3021 RMK AO2 T00670061
Loading
Personal Weather Stations






























Interactive Weather Map New forecast layout! Learn more

10-Day Weather Forecast

Advertisements
Track Severe Weather on mobile